createdAt,value
2018-11-12T00:01:36.720Z,25.65
2018-11-12T00:04:04.905Z,25.95
2018-11-12T00:06:33.108Z,24.30
2018-11-12T00:09:01.205Z,25.23
2018-11-12T00:11:29.303Z,26.12
2018-11-12T00:13:57.404Z,24.63
2018-11-12T00:16:25.484Z,25.40
2018-11-12T00:18:53.579Z,22.07
2018-11-12T00:21:21.667Z,23.55
2018-11-12T00:23:49.764Z,23.45
2018-11-12T00:26:17.858Z,24.80
2018-11-12T00:28:45.952Z,22.52
2018-11-12T00:31:14.074Z,22.85
2018-11-12T00:33:42.181Z,24.27
2018-11-12T00:36:10.264Z,25.32
2018-11-12T00:38:38.363Z,22.62
2018-11-12T00:41:06.457Z,24.75
2018-11-12T00:43:34.543Z,23.52
2018-11-12T00:46:02.765Z,23.32
2018-11-12T00:48:30.844Z,23.10
2018-11-12T00:50:58.964Z,22.55
2018-11-12T00:53:27.152Z,24.40
2018-11-12T00:55:55.336Z,25.02
2018-11-12T00:58:23.423Z,22.75
2018-11-12T01:00:51.515Z,23.50
2018-11-12T01:03:19.695Z,21.23
2018-11-12T01:05:47.863Z,25.15
2018-11-12T01:08:16.003Z,24.30
2018-11-12T01:10:44.084Z,22.30
2018-11-12T01:13:12.184Z,20.10
2018-11-12T01:15:40.315Z,20.65
2018-11-12T01:18:08.903Z,20.43
2018-11-12T01:20:37.012Z,20.50
2018-11-12T01:23:05.500Z,21.40
2018-11-12T01:25:33.607Z,20.08
2018-11-12T01:28:01.702Z,19.15
2018-11-12T01:30:29.787Z,20.23
2018-11-12T01:32:57.892Z,17.42
2018-11-12T01:35:25.980Z,21.62
2018-11-12T01:37:54.096Z,21.27
2018-11-12T01:40:22.192Z,18.77
2018-11-12T01:42:50.279Z,18.95
2018-11-12T01:45:19.503Z,21.48
2018-11-12T01:47:48.736Z,18.52
2018-11-12T01:50:17.427Z,21.35
2018-11-12T01:52:46.220Z,20.10
2018-11-12T01:55:15.407Z,22.17
2018-11-12T01:57:43.792Z,19.62
2018-11-12T02:00:16.887Z,19.67
2018-11-12T02:02:46.076Z,18.90
2018-11-12T02:05:14.262Z,20.27
2018-11-12T02:07:42.932Z,20.00
2018-11-12T02:10:12.542Z,23.55
2018-11-12T02:12:41.129Z,17.90
2018-11-12T02:15:11.752Z,18.82
2018-11-12T02:17:39.876Z,17.30
2018-11-12T02:20:09.846Z,18.35
2018-11-12T02:22:37.956Z,19.10
2018-11-12T02:25:07.227Z,19.32
2018-11-12T02:27:35.491Z,17.73
2018-11-12T02:30:03.910Z,16.75
2018-11-12T02:32:32.036Z,19.20
2018-11-12T02:35:00.136Z,18.45
2018-11-12T02:37:28.223Z,21.15
2018-11-12T02:39:56.413Z,16.48
2018-11-12T02:42:24.503Z,20.17
2018-11-12T02:44:52.595Z,19.60
2018-11-12T02:47:20.677Z,19.67
2018-11-12T02:49:48.776Z,19.25
2018-11-12T02:52:16.868Z,18.05
2018-11-12T02:54:44.971Z,21.17
2018-11-12T02:57:13.074Z,19.67
2018-11-12T02:59:41.152Z,21.70
2018-11-12T03:02:09.331Z,17.87
2018-11-12T03:04:37.538Z,18.87
2018-11-12T03:07:05.623Z,17.95
2018-11-12T03:09:33.707Z,20.10
2018-11-12T03:12:01.796Z,20.68
2018-11-12T03:14:29.883Z,19.40
2018-11-12T03:16:57.975Z,16.87
2018-11-12T03:19:26.055Z,18.73
2018-11-12T03:21:54.149Z,24.05
2018-11-12T03:24:22.255Z,22.67
2018-11-12T03:26:50.399Z,22.65
2018-11-12T03:29:18.483Z,23.98
2018-11-12T03:31:46.576Z,24.67
2018-11-12T03:34:14.661Z,22.52
2018-11-12T03:36:42.751Z,19.90
2018-11-12T03:39:11.229Z,21.87
2018-11-12T03:41:39.389Z,19.60
2018-11-12T03:44:08.051Z,22.10
2018-11-12T03:46:36.164Z,32.35
2018-11-12T03:49:04.321Z,32.63
2018-11-12T03:51:32.497Z,27.30
2018-11-12T03:54:00.590Z,33.42
2018-11-12T03:56:28.708Z,32.98
2018-11-12T03:58:56.815Z,35.17
2018-11-12T04:01:29.167Z,32.65
2018-11-12T04:03:57.304Z,38.80
2018-11-12T04:06:25.388Z,34.10
2018-11-12T04:08:53.475Z,33.73
2018-11-12T04:11:21.560Z,35.90
2018-11-12T04:13:49.647Z,34.53
2018-11-12T04:16:17.743Z,38.20
2018-11-12T04:18:45.849Z,35.73
2018-11-12T04:21:13.939Z,33.13
2018-11-12T04:23:42.030Z,32.85
2018-11-12T04:26:10.139Z,35.35
2018-11-12T04:28:38.231Z,34.83
2018-11-12T04:31:06.328Z,36.77
2018-11-12T04:33:34.487Z,39.70
2018-11-12T04:36:02.600Z,35.70
2018-11-12T04:38:30.696Z,33.83
2018-11-12T04:40:58.803Z,35.38
2018-11-12T04:43:26.879Z,32.90
2018-11-12T04:45:55.024Z,34.05
2018-11-12T04:48:23.109Z,35.83
2018-11-12T04:50:51.219Z,34.30
2018-11-12T04:53:19.364Z,37.00
2018-11-12T04:55:47.469Z,34.20
2018-11-12T04:58:15.568Z,31.40
2018-11-12T05:00:43.670Z,34.13
2018-11-12T05:03:11.765Z,32.25
2018-11-12T05:05:39.844Z,30.05
2018-11-12T05:08:08.132Z,31.70
2018-11-12T05:10:36.213Z,29.52
2018-11-12T05:13:04.409Z,29.92
2018-11-12T05:15:32.488Z,31.95
2018-11-12T05:18:00.592Z,27.73
2018-11-12T05:20:29.762Z,27.50
2018-11-12T05:22:58.044Z,25.35
2018-11-12T05:25:26.131Z,27.90
2018-11-12T05:27:54.216Z,26.60
2018-11-12T05:30:24.709Z,30.20
2018-11-12T05:32:52.788Z,30.77
2018-11-12T05:35:22.095Z,28.60
2018-11-12T05:37:50.264Z,30.23
2018-11-12T05:40:20.524Z,29.23
2018-11-12T05:42:48.859Z,25.95
2018-11-12T05:45:18.172Z,26.35
2018-11-12T05:47:46.617Z,26.10
2018-11-12T05:50:17.369Z,25.48
2018-11-12T05:52:46.584Z,29.72
2018-11-12T05:55:16.084Z,27.95
2018-11-12T05:57:44.759Z,28.70
2018-11-12T06:00:16.751Z,29.92
2018-11-12T06:02:44.843Z,27.17
2018-11-12T06:05:13.948Z,31.70
2018-11-12T06:07:42.313Z,27.45
2018-11-12T06:10:15.679Z,28.02
2018-11-12T06:12:44.157Z,28.45
2018-11-12T06:15:12.672Z,26.12
2018-11-12T06:17:41.524Z,28.77
2018-11-12T06:20:14.119Z,28.62
2018-11-12T06:22:42.339Z,30.35
2018-11-12T06:25:11.579Z,33.67
2018-11-12T06:27:39.760Z,29.87
2018-11-12T06:30:09.935Z,29.65
2018-11-12T06:32:38.357Z,29.50
2018-11-12T06:35:07.248Z,30.77
2018-11-12T06:37:35.348Z,29.23
2018-11-12T06:40:03.530Z,27.02
2018-11-12T06:42:31.733Z,28.52
2018-11-12T06:44:59.783Z,27.93
2018-11-12T06:47:27.884Z,29.50
2018-11-12T06:49:55.972Z,27.93
2018-11-12T06:52:24.048Z,26.33
2018-11-12T06:54:52.139Z,28.02
2018-11-12T06:57:20.227Z,28.38
2018-11-12T06:59:48.319Z,32.70
2018-11-12T07:02:16.453Z,29.57
2018-11-12T07:04:44.647Z,31.05
2018-11-12T07:07:12.796Z,32.17
2018-11-12T07:09:40.891Z,27.20
2018-11-12T07:12:08.980Z,29.90
2018-11-12T07:14:37.136Z,27.42
2018-11-12T07:17:05.840Z,28.62
2018-11-12T07:19:33.921Z,28.52
2018-11-12T07:22:02.028Z,29.15
2018-11-12T07:24:30.107Z,31.65
2018-11-12T07:26:58.235Z,27.55
2018-11-12T07:29:26.322Z,27.58
2018-11-12T07:32:06.940Z,29.80
2018-11-12T07:34:35.127Z,28.98
2018-11-12T07:37:03.381Z,28.67
2018-11-12T07:39:31.505Z,30.70
2018-11-12T07:41:59.632Z,27.60
2018-11-12T07:44:27.788Z,29.35
2018-11-12T07:46:55.923Z,26.97
2018-11-12T07:49:24.108Z,26.87
2018-11-12T07:51:52.320Z,25.52
2018-11-12T07:54:20.536Z,25.65
2018-11-12T07:56:48.789Z,24.12
2018-11-12T07:59:16.943Z,25.20
2018-11-12T08:01:45.094Z,24.50
2018-11-12T08:04:13.808Z,23.90
2018-11-12T08:06:41.936Z,23.12
2018-11-12T08:09:11.381Z,20.00
2018-11-12T08:11:39.761Z,25.00
2018-11-12T08:14:07.924Z,21.10
2018-11-12T08:16:36.087Z,22.67
2018-11-12T08:19:04.695Z,20.25
2018-11-12T08:21:32.951Z,19.77
2018-11-12T08:24:01.204Z,20.45
2018-11-12T08:26:29.376Z,18.27
2018-11-12T08:28:57.860Z,19.75
2018-11-12T08:31:26.050Z,18.05
2018-11-12T08:33:54.169Z,19.00
2018-11-12T08:36:22.292Z,18.67
2018-11-12T08:38:50.973Z,21.50
2018-11-12T08:41:19.109Z,20.65
2018-11-12T08:43:47.289Z,18.20
2018-11-12T08:46:15.553Z,18.42
2018-11-12T08:48:43.645Z,16.97
2018-11-12T08:51:11.792Z,17.25
2018-11-12T08:53:39.940Z,18.27
2018-11-12T08:56:08.102Z,18.48
2018-11-12T08:58:36.585Z,20.37
2018-11-12T09:01:04.872Z,19.77
2018-11-12T09:03:33.027Z,21.40
2018-11-12T09:06:01.195Z,19.85
2018-11-12T09:08:29.381Z,21.10
2018-11-12T09:10:57.521Z,21.25
2018-11-12T09:13:25.683Z,24.10
2018-11-12T09:15:53.958Z,21.50
2018-11-12T09:18:21.992Z,20.17
2018-11-12T09:20:50.147Z,28.07
2018-11-12T09:23:18.303Z,27.02
2018-11-12T09:25:46.460Z,27.37
2018-11-12T09:28:14.611Z,25.70
2018-11-12T09:30:44.140Z,24.20
2018-11-12T09:33:10.940Z,22.67
2018-11-12T09:35:39.064Z,25.17
2018-11-12T09:38:07.206Z,26.02
2018-11-12T09:40:41.215Z,24.00
2018-11-12T09:43:09.393Z,27.02
2018-11-12T09:45:37.516Z,25.08
2018-11-12T09:48:05.636Z,25.70
2018-11-12T09:50:33.759Z,22.77
2018-11-12T09:53:02.867Z,22.55
2018-11-12T09:55:31.900Z,20.23
2018-11-12T09:58:02.311Z,19.87
2018-11-12T10:00:32.887Z,18.15
2018-11-12T10:03:01.474Z,17.85
2018-11-12T10:05:30.581Z,19.80
2018-11-12T10:08:02.611Z,18.93
2018-11-12T10:10:37.542Z,17.00
2018-11-12T10:13:06.056Z,15.60
2018-11-12T10:15:34.739Z,15.63
2018-11-12T10:18:02.362Z,16.27
2018-11-12T10:20:28.402Z,16.63
2018-11-12T10:22:56.511Z,13.90
2018-11-12T10:25:24.608Z,15.90
2018-11-12T10:27:52.748Z,13.10
2018-11-12T10:30:21.004Z,14.20
2018-11-12T10:32:49.205Z,15.00
2018-11-12T10:35:17.379Z,13.73
2018-11-12T10:37:45.484Z,12.90
2018-11-12T10:40:15.996Z,12.37
2018-11-12T10:42:44.607Z,13.07
2018-11-12T10:45:12.902Z,13.22
2018-11-12T10:47:41.204Z,13.15
2018-11-12T10:50:09.327Z,12.45
2018-11-12T10:52:37.597Z,12.85
2018-11-12T10:55:07.782Z,11.78
2018-11-12T10:57:35.863Z,12.18
2018-11-12T11:00:05.399Z,11.00
2018-11-12T11:02:37.776Z,10.43
2018-11-12T11:05:06.596Z,11.00
2018-11-12T11:07:34.724Z,10.30
2018-11-12T11:10:02.862Z,9.93
2018-11-12T11:12:31.081Z,11.83
2018-11-12T11:14:59.214Z,11.12
2018-11-12T11:17:27.396Z,9.30
2018-11-12T11:19:55.502Z,10.18
2018-11-12T11:22:23.620Z,9.98
2018-11-12T11:24:51.731Z,9.80
2018-11-12T11:27:19.872Z,9.05
2018-11-12T11:29:48.001Z,8.78
2018-11-12T11:32:16.143Z,9.53
2018-11-12T11:34:44.259Z,10.15
2018-11-12T11:37:12.388Z,11.20
2018-11-12T11:39:40.519Z,8.90
2018-11-12T11:42:08.625Z,9.95
2018-11-12T11:44:36.744Z,9.20
2018-11-12T11:47:04.939Z,9.90
2018-11-12T11:49:33.075Z,8.75
2018-11-12T11:52:01.168Z,9.48
2018-11-12T11:54:30.739Z,9.20
2018-11-12T11:56:58.873Z,9.13
2018-11-12T11:59:26.988Z,8.45
2018-11-12T12:01:55.109Z,8.25
2018-11-12T12:04:23.260Z,10.03
2018-11-12T12:06:51.371Z,10.15
2018-11-12T12:09:19.540Z,9.78
2018-11-12T12:11:47.703Z,10.80
2018-11-12T12:14:15.835Z,10.20
2018-11-12T12:16:44.001Z,10.65
2018-11-12T12:19:12.152Z,12.30
2018-11-12T12:21:40.256Z,11.28
2018-11-12T12:24:08.367Z,11.55
2018-11-12T12:26:36.518Z,11.85
2018-11-12T12:29:05.097Z,10.63
2018-11-12T12:31:33.201Z,11.25
2018-11-12T12:34:01.322Z,11.22
2018-11-12T12:36:29.528Z,11.35
2018-11-12T12:38:57.595Z,10.58
2018-11-12T12:41:25.768Z,11.88
2018-11-12T12:43:53.915Z,12.75
2018-11-12T12:46:22.204Z,12.88
2018-11-12T12:48:50.332Z,13.75
2018-11-12T12:51:18.493Z,12.58
2018-11-12T12:53:46.722Z,13.72
2018-11-12T12:56:14.981Z,12.85
2018-11-12T12:58:43.220Z,13.38
2018-11-12T13:01:11.449Z,13.45
2018-11-12T13:03:39.573Z,13.25
2018-11-12T13:06:07.714Z,15.83
2018-11-12T13:08:35.833Z,14.43
2018-11-12T13:11:03.984Z,16.57
2018-11-12T13:13:32.129Z,14.87
2018-11-12T13:16:00.299Z,14.75
2018-11-12T13:18:28.446Z,14.73
2018-11-12T13:20:56.641Z,14.58
2018-11-12T13:23:24.748Z,12.75
2018-11-12T13:25:52.888Z,14.90
2018-11-12T13:28:21.029Z,15.85
2018-11-12T13:30:49.172Z,15.98
2018-11-12T13:33:17.267Z,15.75
2018-11-12T13:35:45.355Z,17.20
2018-11-12T13:38:13.459Z,18.02
2018-11-12T13:40:41.557Z,17.75
2018-11-12T13:43:09.651Z,18.00
2018-11-12T13:45:37.762Z,18.70
2018-11-12T13:48:05.893Z,20.95
2018-11-12T13:50:34.023Z,19.20
2018-11-12T13:53:03.047Z,19.40
2018-11-12T13:55:31.134Z,20.02
2018-11-12T13:57:59.219Z,20.05
2018-11-12T14:00:28.613Z,19.15
2018-11-12T14:02:57.175Z,19.67
2018-11-12T14:05:26.051Z,21.30
2018-11-12T14:07:54.151Z,19.62
2018-11-12T14:10:23.627Z,18.23
2018-11-12T14:12:52.719Z,21.52
2018-11-12T14:15:21.743Z,23.32
2018-11-12T14:17:50.413Z,20.00
2018-11-12T14:20:20.401Z,20.57
2018-11-12T14:22:48.465Z,20.70
2018-11-12T14:25:17.588Z,22.52
2018-11-12T14:27:46.858Z,24.65
2018-11-12T14:30:16.391Z,24.35
2018-11-12T14:32:44.685Z,26.07
2018-11-12T14:35:13.396Z,21.73
2018-11-12T14:37:42.467Z,21.87
2018-11-12T14:40:11.664Z,23.18
2018-11-12T14:42:39.860Z,24.27
2018-11-12T14:45:09.481Z,22.42
2018-11-12T14:47:37.547Z,25.27
2018-11-12T14:50:05.967Z,24.50
2018-11-12T14:52:34.092Z,25.17
2018-11-12T14:55:02.238Z,24.75
2018-11-12T14:57:30.524Z,28.12
2018-11-12T14:59:58.728Z,26.65
2018-11-12T15:02:27.400Z,29.77
2018-11-12T15:04:55.551Z,31.93
2018-11-12T15:07:23.931Z,30.12
2018-11-12T15:09:52.236Z,27.52
2018-11-12T15:12:20.591Z,34.38
2018-11-12T15:14:48.836Z,30.02
2018-11-12T15:17:16.831Z,35.55
2018-11-12T15:19:44.932Z,33.83
2018-11-12T15:22:13.027Z,37.15
2018-11-12T15:24:41.159Z,35.03
2018-11-12T15:27:09.243Z,36.40
2018-11-12T15:29:37.707Z,33.85
2018-11-12T15:32:05.961Z,32.93
2018-11-12T15:34:34.059Z,38.80
2018-11-12T15:37:02.348Z,34.80
2018-11-12T15:39:31.036Z,37.80
2018-11-12T15:41:59.139Z,38.90
2018-11-12T15:44:27.292Z,34.38
2018-11-12T15:46:55.396Z,37.08
2018-11-12T15:49:23.499Z,35.00
2018-11-12T15:51:51.599Z,36.17
2018-11-12T15:54:19.704Z,37.75
2018-11-12T15:56:47.814Z,36.23
2018-11-12T15:59:15.962Z,34.80
2018-11-12T16:01:44.103Z,38.00
2018-11-12T16:04:12.188Z,40.30
2018-11-12T16:06:40.392Z,39.23
2018-11-12T16:09:10.990Z,39.63
2018-11-12T16:11:39.117Z,37.98
2018-11-12T16:14:07.636Z,38.38
2018-11-12T16:16:35.824Z,35.98
2018-11-12T16:19:04.050Z,34.88
2018-11-12T16:21:32.236Z,40.65
2018-11-12T16:24:00.339Z,37.50
2018-11-12T16:26:28.440Z,38.30
2018-11-12T16:28:56.551Z,38.60
2018-11-12T16:31:24.762Z,37.20
2018-11-12T16:33:52.876Z,41.00
2018-11-12T16:36:20.993Z,36.55
2018-11-12T16:38:49.189Z,37.10
2018-11-12T16:41:17.342Z,36.73
2018-11-12T16:43:45.449Z,38.08
2018-11-12T16:46:13.548Z,41.05
2018-11-12T16:48:41.776Z,35.38
2018-11-12T16:51:09.874Z,37.10
2018-11-12T16:53:38.004Z,37.75
2018-11-12T16:56:06.103Z,37.28
2018-11-12T16:58:34.216Z,36.38
2018-11-12T17:01:02.332Z,42.50
2018-11-12T17:03:30.524Z,41.18
2018-11-12T17:05:58.716Z,41.65
2018-11-12T17:08:26.845Z,37.90
2018-11-12T17:10:56.040Z,38.73
2018-11-12T17:13:24.196Z,35.85
2018-11-12T17:15:52.400Z,39.30
2018-11-12T17:18:20.560Z,39.73
2018-11-12T17:20:48.691Z,38.20
2018-11-12T17:23:16.829Z,37.95
2018-11-12T17:25:45.005Z,37.85
2018-11-12T17:28:13.185Z,40.70
2018-11-12T17:30:41.286Z,38.53
2018-11-12T17:33:09.394Z,38.30
2018-11-12T17:35:37.685Z,34.73
2018-11-12T17:38:05.880Z,39.33
2018-11-12T17:40:34.012Z,38.75
2018-11-12T17:43:02.130Z,37.40
2018-11-12T17:45:30.244Z,37.58
2018-11-12T17:47:58.878Z,35.05
2018-11-12T17:50:27.010Z,34.55
2018-11-12T17:52:55.131Z,36.85
2018-11-12T17:55:23.280Z,37.30
2018-11-12T17:57:51.465Z,38.53
2018-11-12T18:00:23.013Z,37.45
2018-11-12T18:02:51.192Z,35.55
2018-11-12T18:05:19.303Z,35.65
2018-11-12T18:07:47.700Z,39.60
2018-11-12T18:10:16.555Z,37.98
2018-11-12T18:12:44.693Z,37.73
2018-11-12T18:15:14.226Z,38.42
2018-11-12T18:17:42.400Z,37.78
2018-11-12T18:20:13.651Z,36.00
2018-11-12T18:22:41.837Z,37.10
2018-11-12T18:25:10.401Z,37.98
2018-11-12T18:27:38.859Z,38.67
2018-11-12T18:30:10.792Z,40.23
2018-11-12T18:32:39.004Z,40.30
2018-11-12T18:35:07.280Z,40.98
2018-11-12T18:37:36.093Z,40.58
2018-11-12T18:40:05.028Z,42.93
2018-11-12T18:42:33.232Z,43.40
2018-11-12T18:45:01.376Z,39.48
2018-11-12T18:47:29.660Z,43.00
2018-11-12T18:49:57.931Z,42.05
2018-11-12T18:52:26.072Z,38.02
2018-11-12T18:54:54.228Z,40.40
2018-11-12T18:57:22.461Z,41.20
2018-11-12T18:59:50.595Z,37.58
2018-11-12T19:02:18.819Z,38.48
2018-11-12T19:04:47.032Z,38.00
2018-11-12T19:07:15.180Z,38.40
2018-11-12T19:09:43.295Z,38.25
2018-11-12T19:12:11.407Z,34.40
2018-11-12T19:14:39.512Z,38.28
2018-11-12T19:17:07.654Z,42.50
2018-11-12T19:19:35.768Z,38.25
2018-11-12T19:22:03.923Z,39.70
2018-11-12T19:24:32.016Z,33.85
2018-11-12T19:27:00.166Z,38.25
2018-11-12T19:29:28.256Z,40.70
2018-11-12T19:31:56.397Z,38.50
2018-11-12T19:34:24.592Z,36.30
2018-11-12T19:36:52.723Z,37.28
2018-11-12T19:39:20.856Z,35.60
2018-11-12T19:41:48.989Z,38.78
2018-11-12T19:44:17.077Z,43.52
2018-11-12T19:46:45.200Z,36.20
2018-11-12T19:49:13.429Z,34.08
2018-11-12T19:51:41.620Z,34.13
2018-11-12T19:54:09.695Z,35.33
2018-11-12T19:56:38.214Z,34.70
2018-11-12T19:59:07.388Z,35.83
2018-11-12T20:01:35.476Z,42.33
2018-11-12T20:04:03.595Z,36.40
2018-11-12T20:06:31.702Z,34.58
2018-11-12T20:08:59.810Z,35.40
2018-11-12T20:11:27.920Z,34.67
2018-11-12T20:13:58.628Z,36.77
2018-11-12T20:16:27.110Z,34.23
2018-11-12T20:18:56.800Z,34.65
2018-11-12T20:21:25.410Z,36.08
2018-11-12T20:23:54.224Z,33.55
2018-11-12T20:26:24.177Z,30.65
2018-11-12T20:28:55.021Z,29.63
2018-11-12T20:31:25.781Z,34.85
2018-11-12T20:33:54.845Z,32.73
2018-11-12T20:36:23.714Z,32.13
2018-11-12T20:38:54.562Z,30.00
2018-11-12T20:41:23.462Z,31.17
2018-11-12T20:43:53.458Z,31.45
2018-11-12T20:46:22.928Z,31.50
2018-11-12T20:48:52.581Z,29.95
2018-11-12T20:51:24.908Z,30.32
2018-11-12T20:53:53.825Z,31.62
2018-11-12T20:56:22.684Z,31.42
2018-11-12T20:58:51.272Z,30.37
2018-11-12T21:01:21.041Z,25.97
2018-11-12T21:03:49.300Z,35.05
2018-11-12T21:06:19.382Z,32.48
2018-11-12T21:08:47.836Z,29.42
2018-11-12T21:11:16.353Z,34.03
2018-11-12T21:13:45.349Z,24.90
2018-11-12T21:16:14.134Z,28.25
2018-11-12T21:18:50.344Z,30.02
2018-11-12T21:21:19.413Z,28.15
2018-11-12T21:23:48.894Z,26.15
2018-11-12T21:26:17.966Z,26.25
2018-11-12T21:28:46.462Z,26.87
2018-11-12T21:31:16.789Z,28.45
2018-11-12T21:33:46.248Z,24.05
2018-11-12T21:36:15.225Z,26.48
2018-11-12T21:38:45.727Z,27.52
2018-11-12T21:41:13.951Z,25.55
2018-11-12T21:43:42.127Z,25.55
2018-11-12T21:46:10.293Z,27.67
2018-11-12T21:48:38.543Z,24.85
2018-11-12T21:51:06.749Z,25.52
2018-11-12T21:53:34.918Z,26.80
2018-11-12T21:56:03.064Z,24.12
2018-11-12T21:58:31.199Z,25.32
2018-11-12T22:00:59.316Z,23.75
2018-11-12T22:03:27.513Z,22.60
2018-11-12T22:05:55.642Z,25.40
2018-11-12T22:08:23.821Z,27.27
2018-11-12T22:10:51.884Z,23.80
2018-11-12T22:13:20.009Z,23.55
2018-11-12T22:15:48.120Z,25.48
2018-11-12T22:18:16.207Z,25.12
2018-11-12T22:20:44.328Z,25.10
2018-11-12T22:23:12.459Z,27.30
2018-11-12T22:25:40.613Z,27.82
2018-11-12T22:28:08.923Z,24.27
2018-11-12T22:30:36.955Z,25.97
2018-11-12T22:33:05.232Z,26.25
2018-11-12T22:35:33.382Z,27.58
2018-11-12T22:38:01.484Z,26.27
2018-11-12T22:40:29.614Z,27.48
2018-11-12T22:42:57.724Z,26.80
2018-11-12T22:45:26.060Z,30.40
2018-11-12T22:47:54.263Z,28.83
2018-11-12T22:50:22.351Z,26.70
2018-11-12T22:52:50.712Z,28.95
2018-11-12T22:55:19.517Z,28.98
2018-11-12T22:57:47.672Z,32.15
2018-11-12T23:00:27.119Z,27.55
2018-11-12T23:02:55.614Z,24.72
2018-11-12T23:05:23.960Z,27.73
2018-11-12T23:07:52.789Z,28.92
2018-11-12T23:10:21.263Z,28.90
2018-11-12T23:12:49.415Z,28.45
2018-11-12T23:15:18.123Z,29.45
2018-11-12T23:17:46.239Z,30.23
2018-11-12T23:20:18.295Z,28.02
2018-11-12T23:22:47.155Z,30.43
2018-11-12T23:25:15.360Z,29.12
2018-11-12T23:27:44.379Z,29.98
2018-11-12T23:30:14.019Z,29.48
2018-11-12T23:32:42.160Z,27.00
2018-11-12T23:35:12.836Z,31.73
2018-11-12T23:37:41.680Z,29.57
2018-11-12T23:40:10.307Z,29.23
2018-11-12T23:42:38.453Z,28.23
2018-11-12T23:45:07.004Z,29.72
2018-11-12T23:47:35.865Z,28.57
2018-11-12T23:50:04.699Z,26.50
2018-11-12T23:52:32.804Z,27.60
2018-11-12T23:55:00.897Z,28.25
2018-11-12T23:57:29.036Z,27.82
2018-11-12T23:59:57.144Z,26.33
